Time;durP1;ratioP1;P1;durP2;ratioP2;P2;SDS_P1;SDS_P2;PMS_P1;PMS_P2;Temp;Humidity;BMP_temperature;BMP_pressure;BME280_temperature;BME280_humidity;BME280_pressure;Samples;Min_cycle;Max_cycle;Signal;HPM_P1;HPM_P2
2023/02/03 00:01:37;;;;;;;0.10;0.10;;;;;;;11.16;66.72;102581.78;4993899;28;20039;-85
2023/02/03 00:04:03;;;;;;;0.20;0.20;;;;;;;11.23;67.18;102580.06;4974454;28;20109;-85
2023/02/03 00:06:31;;;;;;;0.20;0.20;;;;;;;11.05;67.54;102586.13;4994147;28;20037;-86
2023/02/03 00:08:59;;;;;;;0.10;0.10;;;;;;;11.03;66.83;102606.44;4987087;28;20122;-86
2023/02/03 00:11:28;;;;;;;0.10;0.10;;;;;;;11.09;67.06;102607.38;4976842;28;20019;-86
2023/02/03 00:13:54;;;;;;;0.20;0.20;;;;;;;11.17;67.50;102586.19;4977627;28;20035;-86
2023/02/03 00:16:20;;;;;;;0.10;0.10;;;;;;;11.16;66.95;102593.28;4974637;28;20042;-86
2023/02/03 00:18:46;;;;;;;0.57;0.57;;;;;;;11.12;67.45;102595.91;4968834;28;20102;-86
2023/02/03 00:21:14;;;;;;;0.10;0.10;;;;;;;11.11;67.37;102588.81;4975639;28;20038;-86
2023/02/03 00:23:40;;;;;;;3.75;1.75;;;;;;;11.08;67.49;102599.41;4964725;28;20045;-85
2023/02/03 00:26:12;;;;;;;0.17;0.17;;;;;;;11.14;67.01;102602.09;4975946;28;20019;-88
2023/02/03 00:28:39;;;;;;;0.10;0.10;;;;;;;11.10;66.95;102587.94;4973430;28;20039;-88
2023/02/03 00:31:18;;;;;;;0.10;0.10;;;;;;;10.99;67.49;102594.91;4968546;28;20043;-89
2023/02/03 00:33:44;;;;;;;0.10;0.10;;;;;;;10.98;67.59;102609.97;4970932;28;20505;-85
2023/02/03 00:36:11;;;;;;;0.10;0.10;;;;;;;10.92;67.65;102609.91;4971470;28;20053;-86
2023/02/03 00:38:40;;;;;;;0.20;0.20;;;;;;;11.06;67.22;102617.09;4973805;28;20034;-85
2023/02/03 00:41:06;;;;;;;0.13;0.13;;;;;;;10.98;67.63;102612.63;4975077;28;20031;-86
2023/02/03 00:43:33;;;;;;;0.10;0.10;;;;;;;11.02;67.53;102610.00;4967004;28;20038;-87
2023/02/03 00:45:59;;;;;;;0.10;0.10;;;;;;;10.98;67.36;102604.66;4964693;28;20446;-87
2023/02/03 00:48:25;;;;;;;0.10;0.10;;;;;;;10.91;67.55;102613.44;4966702;28;20031;-86
2023/02/03 00:50:54;;;;;;;0.10;0.10;;;;;;;11.02;67.66;102615.31;4978543;28;20027;-86
2023/02/03 00:53:20;;;;;;;0.10;0.10;;;;;;;11.00;67.38;102621.47;4973339;28;20096;-87
2023/02/03 00:55:46;;;;;;;0.10;0.10;;;;;;;10.96;67.52;102619.66;4966596;28;20035;-85
2023/02/03 00:58:12;;;;;;;0.10;0.10;;;;;;;10.99;67.54;102606.44;4964209;28;20070;-86
2023/02/03 01:00:39;;;;;;;0.10;0.10;;;;;;;10.98;67.85;102614.41;4959935;28;20125;-84
2023/02/03 01:03:10;;;;;;;0.63;0.63;;;;;;;11.02;67.36;102610.00;4964716;28;20094;-90
2023/02/03 01:13:49;;;;;;;0.00;0.00;;;;;;;10.98;67.81;102582.56;5010657;28;20057;-88
2023/02/03 01:31:31;;;;;;;0.10;0.10;;;;;;;11.12;66.44;102587.94;4897415;29;20786;-87
2023/02/03 01:40:51;;;;;;;0.10;0.10;;;;;;;11.06;66.45;102558.72;5121986;27;1155801;-88
2023/02/03 01:43:36;;;;;;;0.10;0.10;;;;;;;11.08;65.99;102549.00;5117531;27;20133;-86
2023/02/03 01:46:15;;;;;;;0.10;0.10;;;;;;;11.18;66.01;102548.19;5111772;28;20042;-86
2023/02/03 01:48:41;;;;;;;0.10;0.10;;;;;;;11.13;66.40;102557.91;5110528;28;20031;-86
2023/02/03 01:51:08;;;;;;;2.35;1.73;;;;;;;11.14;65.97;102555.25;5118190;28;20027;-87
2023/02/03 01:53:36;;;;;;;0.10;0.10;;;;;;;11.15;65.90;102564.06;5116847;28;20043;-86
2023/02/03 01:56:04;;;;;;;0.10;0.10;;;;;;;11.16;65.63;102565.84;5109994;28;20369;-85
2023/02/03 01:58:34;;;;;;;0.10;0.10;;;;;;;11.21;65.27;102557.94;5106971;28;20490;-86
2023/02/03 02:01:01;;;;;;;0.10;0.10;;;;;;;11.23;65.82;102556.19;5107804;28;20118;-86
2023/02/03 02:03:33;;;;;;;0.30;0.30;;;;;;;11.24;65.31;102553.53;5108913;28;20023;-86
2023/02/03 02:06:05;;;;;;;0.10;0.10;;;;;;;11.24;65.21;102547.31;5110115;28;20073;-87
2023/02/03 02:08:31;;;;;;;0.10;0.10;;;;;;;11.28;65.68;102547.34;5109188;28;20057;-87
2023/02/03 02:10:59;;;;;;;0.47;0.47;;;;;;;11.26;65.44;102543.78;5110897;28;20042;-85
2023/02/03 02:13:28;;;;;;;0.10;0.10;;;;;;;11.20;65.64;102545.53;5111876;28;20081;-84
2023/02/03 02:16:02;;;;;;;0.10;0.10;;;;;;;11.20;65.26;102540.22;5122316;28;20083;-87
2023/02/03 02:24:46;;;;;;;0.10;0.10;;;;;;;11.32;64.90;102538.50;5071078;28;20795;-86
2023/02/03 02:30:52;;;;;;;0.10;0.10;;;;;;;11.25;65.09;102560.59;5094375;27;1179985;-86
2023/02/03 02:33:35;;;;;;;0.10;0.10;;;;;;;11.19;64.65;102555.28;5111833;28;20036;-85
2023/02/03 02:39:10;;;;;;;0.13;0.13;;;;;;;11.29;64.87;102557.06;5108042;27;20893;-86
2023/02/03 02:41:57;;;;;;;0.10;0.10;;;;;;;11.35;65.31;102555.31;5079806;28;20041;-86
2023/02/03 02:44:29;;;;;;;0.40;0.40;;;;;;;11.22;65.02;102555.28;5089325;28;20619;-87
2023/02/03 02:47:01;;;;;;;0.20;0.20;;;;;;;11.25;64.91;102555.31;5087034;28;20027;-85
2023/02/03 02:49:36;;;;;;;0.57;0.57;;;;;;;11.36;65.52;102543.84;5090175;28;20483;-86
2023/02/03 02:52:06;;;;;;;0.10;0.10;;;;;;;11.31;65.14;102536.75;5086665;28;20487;-85
2023/02/03 02:54:35;;;;;;;4.63;1.65;;;;;;;11.24;64.95;102549.97;5088563;28;20033;-86
2023/02/03 02:57:03;;;;;;;0.20;0.20;;;;;;;11.25;65.00;102534.06;5086074;28;20231;-86
2023/02/03 02:59:30;;;;;;;0.10;0.10;;;;;;;11.29;64.94;102540.25;5090551;28;20061;-85
2023/02/03 03:01:56;;;;;;;0.10;0.10;;;;;;;11.25;65.12;102539.38;5081956;28;20437;-84
2023/02/03 03:04:26;;;;;;;0.10;0.10;;;;;;;11.22;64.88;102523.44;5084231;28;20048;-86
2023/02/03 03:07:00;;;;;;;0.13;0.13;;;;;;;11.34;65.09;102493.41;5073566;28;20029;-85
2023/02/03 03:09:35;;;;;;;0.73;0.73;;;;;;;11.35;64.45;102502.25;5084606;28;20021;-86
2023/02/03 03:12:15;;;;;;;0.10;0.10;;;;;;;11.29;64.47;102497.78;5092962;28;20020;-87
2023/02/03 03:14:47;;;;;;;0.10;0.10;;;;;;;11.25;64.90;102502.22;5097714;28;20044;-87
2023/02/03 03:17:20;;;;;;;0.10;0.10;;;;;;;11.36;64.56;102504.91;5092550;28;20063;-86
2023/02/03 03:19:52;;;;;;;0.95;0.95;;;;;;;11.37;64.88;102516.44;5083629;28;20059;-85
2023/02/03 03:22:22;;;;;;;0.20;0.20;;;;;;;11.29;64.56;102498.69;5062566;28;20024;-85
2023/02/03 03:24:57;;;;;;;0.17;0.17;;;;;;;11.33;64.33;102513.75;5073478;28;20323;-84
2023/02/03 03:27:29;;;;;;;0.10;0.10;;;;;;;11.31;64.70;102515.53;5069714;28;20025;-84
2023/02/03 03:30:01;;;;;;;0.20;0.20;;;;;;;11.37;64.71;102517.28;5071129;28;20082;-84
2023/02/03 03:32:29;;;;;;;0.15;0.15;;;;;;;11.43;64.08;102527.94;5070505;28;20048;-85
2023/02/03 03:34:56;;;;;;;0.10;0.10;;;;;;;11.46;64.06;102527.97;5084917;28;20036;-85
2023/02/03 03:37:34;;;;;;;0.10;0.10;;;;;;;11.43;63.76;102519.09;5073191;28;20021;-86
2023/02/03 03:40:22;;;;;;;0.10;0.10;;;;;;;11.38;64.46;102555.34;5072217;28;20028;-85
2023/02/03 03:42:56;;;;;;;0.20;0.20;;;;;;;11.36;64.33;102546.50;5081713;28;20028;-86
2023/02/03 03:45:46;;;;;;;0.10;0.10;;;;;;;11.45;64.51;102530.59;5086194;28;20088;-85
2023/02/03 03:48:20;;;;;;;0.10;0.10;;;;;;;11.41;64.81;102528.81;5080185;28;20016;-86
2023/02/03 03:50:52;;;;;;;0.10;0.10;;;;;;;11.31;65.08;102531.44;5058719;28;20111;-86
2023/02/03 03:53:20;;;;;;;;;;;;;;;11.46;64.25;102525.31;5057372;28;20021;-85
2023/02/03 03:55:50;;;;;;;0.10;0.10;;;;;;;11.36;64.65;102533.22;5060763;28;19948;-86
2023/02/03 03:58:23;;;;;;;0.10;0.10;;;;;;;11.34;64.80;102546.50;5062427;28;20029;-86
2023/02/03 04:00:51;;;;;;;0.10;0.10;;;;;;;11.35;64.36;102552.69;5057933;28;20120;-85
2023/02/03 04:03:22;;;;;;;0.63;0.63;;;;;;;11.42;64.57;102535.91;5064049;28;20039;-85
2023/02/03 04:05:48;;;;;;;0.20;0.20;;;;;;;11.29;64.74;102538.50;5069542;28;20063;-86
2023/02/03 04:08:14;;;;;;;0.65;0.65;;;;;;;11.33;65.03;102536.75;5063565;28;20037;-85
2023/02/03 04:10:42;;;;;;;0.10;0.10;;;;;;;11.30;64.31;102532.31;5055901;28;20120;-85
2023/02/03 04:13:10;;;;;;;0.10;0.10;;;;;;;11.27;64.75;102536.72;5059784;28;20535;-85
2023/02/03 04:15:36;;;;;;;0.20;0.20;;;;;;;11.32;64.61;102541.16;5054104;28;20056;-86
2023/02/03 04:18:03;;;;;;;0.10;0.10;;;;;;;11.28;64.72;102538.50;5056929;28;20074;-85
2023/02/03 04:20:31;;;;;;;0.10;0.10;;;;;;;11.27;64.96;102532.28;5057284;28;20025;-87
2023/02/03 04:22:58;;;;;;;0.10;0.10;;;;;;;11.18;65.10;102550.84;5059257;28;20124;-84
2023/02/03 04:25:25;;;;;;;0.10;0.10;;;;;;;11.24;64.87;102540.25;5059921;28;20033;-86
2023/02/03 04:27:51;;;;;;;0.20;0.20;;;;;;;11.25;65.16;102536.72;5057763;28;20037;-86
2023/02/03 04:30:17;;;;;;;0.10;0.10;;;;;;;11.26;65.12;102522.56;5057121;28;20037;-84
2023/02/03 04:32:44;;;;;;;0.10;0.10;;;;;;;11.37;64.52;102517.28;5061689;28;20099;-86
2023/02/03 04:35:10;;;;;;;0.10;0.10;;;;;;;11.13;65.04;102518.97;5062797;28;20029;-86
2023/02/03 04:37:36;;;;;;;0.10;0.10;;;;;;;11.26;64.65;102514.59;5059784;28;20041;-86
2023/02/03 04:40:03;;;;;;;0.10;0.10;;;;;;;11.27;65.07;102527.00;5053730;28;20032;-85
2023/02/03 04:42:29;;;;;;;0.30;0.30;;;;;;;11.17;64.91;102520.75;5055366;28;20083;-86
2023/02/03 04:44:55;;;;;;;0.10;0.10;;;;;;;11.25;64.67;102549.09;5070644;28;20112;-88
2023/02/03 04:47:21;;;;;;;0.50;0.50;;;;;;;11.26;64.52;102532.28;5073440;28;20062;-89
2023/02/03 04:49:48;;;;;;;0.10;0.10;;;;;;;11.35;64.99;102531.44;5079815;28;20025;-86
2023/02/03 04:52:15;;;;;;;0.10;0.10;;;;;;;11.34;64.39;102533.22;5076714;28;20060;-84
2023/02/03 04:54:41;;;;;;;0.00;0.00;;;;;;;11.35;65.00;102542.06;5061522;28;20037;-85
2023/02/03 04:57:07;;;;;;;0.10;0.10;;;;;;;11.25;65.12;102542.03;5058253;28;20041;-85
2023/02/03 04:59:33;;;;;;;0.10;0.10;;;;;;;11.29;64.47;102540.25;5053451;28;20500;-86
2023/02/03 05:02:03;;;;;;;0.85;0.85;;;;;;;11.38;64.60;102528.81;5057828;28;20037;-85
2023/02/03 05:04:30;;;;;;;0.03;0.03;;;;;;;11.28;64.20;102534.06;5063886;28;20025;-85
2023/02/03 05:06:56;;;;;;;0.10;0.10;;;;;;;11.24;64.72;102537.59;5058289;28;20059;-85
2023/02/03 05:09:23;;;;;;;0.13;0.13;;;;;;;11.29;64.85;102559.72;5060447;28;20102;-85
2023/02/03 05:11:49;;;;;;;0.10;0.10;;;;;;;11.34;64.79;102535.88;5054870;28;20036;-86
2023/02/03 05:14:15;;;;;;;1.38;1.27;;;;;;;11.35;64.74;102516.41;5057925;28;20025;-86
2023/02/03 05:16:41;;;;;;;0.10;0.10;;;;;;;11.33;64.20;102532.31;5057358;28;20025;-85
2023/02/03 05:19:07;;;;;;;0.10;0.10;;;;;;;11.33;64.30;102542.94;5060809;28;20032;-85
2023/02/03 05:21:33;;;;;;;0.10;0.10;;;;;;;11.29;64.73;102535.84;5062484;28;20052;-85
2023/02/03 05:24:00;;;;;;;0.10;0.10;;;;;;;11.31;64.54;102518.19;5054784;28;20570;-86
2023/02/03 05:26:26;;;;;;;0.30;0.30;;;;;;;11.37;64.30;102543.84;5059513;28;20063;-86
2023/02/03 05:28:52;;;;;;;0.10;0.10;;;;;;;11.33;64.77;102544.72;5058612;28;20044;-86
2023/02/03 05:31:18;;;;;;;0.10;0.10;;;;;;;11.41;64.58;102539.44;5052551;28;20032;-87
2023/02/03 05:33:44;;;;;;;0.10;0.10;;;;;;;11.33;65.03;102553.56;5056036;28;20040;-85
2023/02/03 05:36:10;;;;;;;0.45;0.45;;;;;;;11.25;64.86;102551.75;5055534;28;20025;-86
2023/02/03 05:38:36;;;;;;;0.20;0.20;;;;;;;11.31;65.03;102542.06;5058228;28;20511;-86
2023/02/03 05:43:48;;;;;;;0.20;0.20;;;;;;;11.29;64.63;102546.47;5062241;28;20057;-85
2023/02/03 05:46:14;;;;;;;0.20;0.20;;;;;;;11.24;65.09;102531.38;5063401;28;20036;-85
2023/02/03 05:48:40;;;;;;;0.20;0.20;;;;;;;11.27;65.25;102531.41;5060495;28;20021;-84
2023/02/03 05:51:06;;;;;;;0.20;0.20;;;;;;;11.27;65.04;102521.69;5054080;28;20033;-87
2023/02/03 05:53:33;;;;;;;0.10;0.10;;;;;;;11.29;64.63;102530.53;5051739;28;20040;-85
2023/02/03 05:55:59;;;;;;;0.13;0.13;;;;;;;11.26;64.84;102533.16;5055371;28;20036;-85
2023/02/03 05:58:25;;;;;;;0.20;0.20;;;;;;;11.25;64.85;102534.06;5054339;28;20032;-85
2023/02/03 06:00:51;;;;;;;0.10;0.10;;;;;;;11.15;65.30;102533.16;5052190;28;20510;-85
2023/02/03 06:03:17;;;;;;;0.10;0.10;;;;;;;11.22;64.99;102534.03;5060465;28;20437;-86
2023/02/03 06:05:43;;;;;;;0.10;0.10;;;;;;;11.28;64.84;102547.34;5057045;28;20554;-86
2023/02/03 06:08:10;;;;;;;0.55;0.55;;;;;;;11.35;65.11;102550.03;5067051;28;20037;-85
2023/02/03 06:10:36;;;;;;;0.40;0.40;;;;;;;11.33;65.04;102545.59;5063740;28;20041;-85
2023/02/03 06:13:13;;;;;;;0.10;0.10;;;;;;;11.33;65.13;102558.84;5061060;28;20466;-85
2023/02/03 06:15:39;;;;;;;1.83;1.70;;;;;;;11.33;64.60;102537.63;5060678;28;20045;-86
2023/02/03 06:18:06;;;;;;;0.20;0.20;;;;;;;11.30;64.96;102537.63;5066042;28;20033;-86
2023/02/03 06:20:32;;;;;;;0.10;0.10;;;;;;;11.31;65.18;102535.84;5070050;28;20025;-87
2023/02/03 06:22:58;;;;;;;0.77;0.47;;;;;;;11.32;64.80;102549.13;5077877;28;20085;-86
2023/02/03 06:25:24;;;;;;;0.10;0.10;;;;;;;11.30;65.37;102537.63;5079771;28;20111;-88
2023/02/03 06:27:51;;;;;;;0.10;0.10;;;;;;;11.27;65.06;102534.06;5062929;28;20106;-85
2023/02/03 06:30:17;;;;;;;0.10;0.10;;;;;;;11.36;64.57;102525.25;5069319;28;20035;-86
2023/02/03 06:32:43;;;;;;;0.10;0.10;;;;;;;11.21;65.12;102526.97;5074453;28;20032;-86
2023/02/03 06:35:09;;;;;;;0.10;0.10;;;;;;;11.20;65.09;102541.09;5064465;28;20082;-86
2023/02/03 06:37:36;;;;;;;0.10;0.10;;;;;;;11.27;65.18;102550.00;5067553;28;20037;-86
2023/02/03 06:40:03;;;;;;;0.13;0.13;;;;;;;11.29;64.90;102546.47;5069697;28;20397;-87
2023/02/03 06:42:29;;;;;;;0.10;0.10;;;;;;;11.27;64.99;102561.47;5070250;28;20043;-86
2023/02/03 06:44:55;;;;;;;0.10;0.10;;;;;;;11.30;65.10;102550.91;5068381;28;20033;-86
2023/02/03 06:47:21;;;;;;;0.20;0.20;;;;;;;11.28;65.29;102562.38;5066092;28;20021;-86
2023/02/03 06:49:48;;;;;;;0.35;0.35;;;;;;;11.32;65.44;102557.06;5071230;28;20046;-85
2023/02/03 06:52:14;;;;;;;0.10;0.10;;;;;;;11.24;65.48;102573.84;5065969;28;20048;-86
2023/02/03 06:54:40;;;;;;;0.10;0.10;;;;;;;11.32;65.71;102585.41;5065526;28;20526;-85
2023/02/03 06:57:07;;;;;;;0.10;0.10;;;;;;;11.16;65.67;102581.78;5067242;28;20120;-87
2023/02/03 06:59:33;;;;;;;0.10;0.10;;;;;;;11.14;66.30;102581.78;5073605;28;20043;-87
2023/02/03 07:01:59;;;;;;;0.10;0.10;;;;;;;11.28;65.91;102592.44;5067578;28;20029;-88
2023/02/03 07:04:28;;;;;;;0.10;0.10;;;;;;;11.31;65.59;102592.47;5065363;28;20036;-85
2023/02/03 07:06:55;;;;;;;0.10;0.10;;;;;;;11.35;65.86;102596.00;5064671;28;20013;-86
2023/02/03 07:09:21;;;;;;;0.17;0.17;;;;;;;11.42;65.62;102588.97;5056089;28;20020;-86
2023/02/03 07:11:47;;;;;;;0.10;0.10;;;;;;;11.32;65.44;102602.19;5056080;28;20032;-86
2023/02/03 07:14:13;;;;;;;0.20;0.20;;;;;;;11.42;65.38;102581.03;5066424;28;20387;-87
2023/02/03 07:16:40;;;;;;;0.10;0.10;;;;;;;11.42;65.61;102588.97;5068040;28;20032;-85
2023/02/03 07:19:06;;;;;;;0.10;0.10;;;;;;;11.33;65.58;102598.66;5066904;28;20028;-85
2023/02/03 07:21:32;;;;;;;0.63;0.63;;;;;;;11.44;65.72;102592.50;5058617;28;20083;-82
2023/02/03 07:23:58;;;;;;;0.50;0.50;;;;;;;11.46;65.48;102602.28;5066401;28;20377;-87
2023/02/03 07:26:25;;;;;;;0.10;0.10;;;;;;;11.46;65.65;102590.75;5070033;28;20048;-86
2023/02/03 07:28:51;;;;;;;0.00;0.00;;;;;;;11.42;65.70;102604.91;5078758;28;20031;-87
2023/02/03 07:31:18;;;;;;;0.32;0.32;;;;;;;11.46;65.40;102601.38;5072659;28;20020;-86
2023/02/03 07:33:44;;;;;;;0.10;0.10;;;;;;;11.39;65.65;102610.19;5075787;28;20055;-85
2023/02/03 07:36:11;;;;;;;0.17;0.17;;;;;;;11.54;65.47;102604.97;5070121;28;20032;-85
2023/02/03 07:38:37;;;;;;;0.10;0.10;;;;;;;11.51;65.45;102599.63;5066991;28;20037;-85
2023/02/03 07:41:04;;;;;;;0.10;0.10;;;;;;;11.51;65.70;102599.63;5059756;28;20056;-86
2023/02/03 07:43:30;;;;;;;0.50;0.50;;;;;;;11.58;65.09;102612.06;5074369;28;20082;-85
2023/02/03 07:45:58;;;;;;;0.40;0.40;;;;;;;11.54;65.21;102594.34;5072571;28;20044;-85
2023/02/03 07:48:24;;;;;;;0.22;0.22;;;;;;;11.51;65.55;102610.25;5074133;28;20021;-85
2023/02/03 07:50:53;;;;;;;0.10;0.10;;;;;;;11.62;65.03;102621.78;5073764;28;20063;-86
2023/02/03 07:53:19;;;;;;;0.10;0.10;;;;;;;11.62;64.62;102599.69;5078509;28;20043;-85
2023/02/03 07:55:46;;;;;;;0.38;0.38;;;;;;;11.65;64.97;102624.47;5067782;28;20036;-86
2023/02/03 07:58:12;;;;;;;0.10;0.10;;;;;;;11.57;65.02;102598.78;5073645;28;20013;-89
2023/02/03 08:00:38;;;;;;;0.20;0.20;;;;;;;11.62;64.92;102597.91;5081198;28;20035;-89
2023/02/03 08:03:04;;;;;;;0.10;0.10;;;;;;;11.53;65.67;102605.84;5077487;28;20040;-86
2023/02/03 08:05:30;;;;;;;1.65;0.90;;;;;;;11.61;65.10;102614.75;5062748;28;20033;-84
2023/02/03 08:07:58;;;;;;;0.10;0.10;;;;;;;11.68;64.78;102614.75;5054493;28;20028;-86
2023/02/03 08:10:24;;;;;;;0.20;0.20;;;;;;;11.68;64.64;102609.44;5056230;28;20039;-85
2023/02/03 08:12:53;;;;;;;0.20;0.20;;;;;;;11.71;64.91;102612.09;5059947;28;20373;-85
2023/02/03 08:15:19;;;;;;;1.25;1.15;;;;;;;11.61;64.89;102630.66;5056606;28;20036;-86
2023/02/03 08:17:45;;;;;;;0.10;0.10;;;;;;;11.69;64.55;102632.44;5061413;28;20032;-84
2023/02/03 08:20:12;;;;;;;0.10;0.10;;;;;;;11.74;65.24;102633.34;5059221;28;20087;-85
2023/02/03 08:22:38;;;;;;;0.60;0.60;;;;;;;11.68;64.81;102659.91;5058629;28;20036;-86
2023/02/03 08:25:04;;;;;;;0.38;0.38;;;;;;;11.70;64.43;102663.44;5057990;28;20415;-86
2023/02/03 08:27:31;;;;;;;0.10;0.10;;;;;;;11.67;64.95;102647.50;5055920;28;21822;-86
2023/02/03 08:29:58;;;;;;;0.10;0.10;;;;;;;11.69;64.97;102641.31;5058187;28;20028;-85
2023/02/03 08:32:24;;;;;;;0.85;0.85;;;;;;;11.71;64.86;102633.34;5062013;28;20084;-86
2023/02/03 08:34:51;;;;;;;0.10;0.10;;;;;;;11.71;64.70;102641.31;5063188;28;20032;-86
2023/02/03 08:37:20;;;;;;;0.10;0.10;;;;;;;11.62;65.13;102635.06;5063256;28;20992;-85
2023/02/03 08:39:46;;;;;;;0.10;0.10;;;;;;;11.70;64.87;102642.19;5059171;28;20430;-85
2023/02/03 08:42:12;;;;;;;0.63;0.63;;;;;;;11.76;64.71;102658.16;5055786;28;20025;-85
2023/02/03 08:44:39;;;;;;;0.10;0.10;;;;;;;11.81;65.02;102645.75;5068636;28;20028;-85
2023/02/03 08:47:06;;;;;;;0.10;0.10;;;;;;;11.90;64.64;102640.50;5071874;28;20025;-84
2023/02/03 08:49:34;;;;;;;0.10;0.10;;;;;;;11.90;64.01;102651.13;5060899;28;20043;-86
2023/02/03 08:52:00;;;;;;;0.10;0.10;;;;;;;11.93;64.09;102645.81;5060746;28;20028;-87
2023/02/03 08:54:26;;;;;;;0.10;0.10;;;;;;;11.87;64.40;102648.44;5067014;28;20021;-85
2023/02/03 08:56:52;;;;;;;1.65;1.25;;;;;;;11.89;64.01;102657.31;5069673;28;20033;-87
2023/02/03 08:59:18;;;;;;;0.10;0.10;;;;;;;11.85;64.39;102671.47;5066622;28;20457;-86
2023/02/03 09:01:47;;;;;;;0.10;0.10;;;;;;;11.94;64.44;102668.84;5062086;28;20199;-85
2023/02/03 09:04:17;;;;;;;0.47;0.47;;;;;;;11.95;64.11;102653.78;5057230;28;20017;-85
2023/02/03 09:06:43;;;;;;;0.20;0.20;;;;;;;11.95;64.35;102657.34;5055422;28;20113;-84
2023/02/03 09:09:09;;;;;;;0.20;0.20;;;;;;;12.05;64.11;102668.00;5061950;28;20032;-87
2023/02/03 09:11:35;;;;;;;0.20;0.20;;;;;;;11.98;64.65;102675.09;5054037;28;20092;-86
2023/02/03 09:14:02;;;;;;;0.20;0.20;;;;;;;12.05;64.37;102673.34;5056080;28;20025;-85
2023/02/03 09:16:29;;;;;;;0.52;0.52;;;;;;;12.08;64.37;102689.31;5058767;28;20024;-86
2023/02/03 09:18:55;;;;;;;0.10;0.10;;;;;;;12.04;64.08;102685.75;5072700;28;20036;-87
2023/02/03 09:21:21;;;;;;;0.10;0.10;;;;;;;12.06;63.78;102688.41;5070792;28;20032;-86
2023/02/03 09:23:47;;;;;;;0.10;0.10;;;;;;;12.05;64.03;102702.56;5086430;28;20028;-86
2023/02/03 09:26:14;;;;;;;0.10;0.10;;;;;;;12.03;64.14;102689.28;5077301;28;20021;-85
2023/02/03 09:28:41;;;;;;;0.20;0.20;;;;;;;12.03;64.11;102672.47;5066556;28;20029;-84
2023/02/03 09:31:09;;;;;;;0.10;0.10;;;;;;;12.10;64.23;102695.47;5077360;28;20120;-86
2023/02/03 09:33:36;;;;;;;0.10;0.10;;;;;;;12.16;63.96;102706.13;5081008;28;20020;-86
2023/02/03 09:36:02;;;;;;;0.10;0.10;;;;;;;12.16;64.17;102705.25;5082302;28;20005;-87
2023/02/03 09:38:29;;;;;;;0.52;0.52;;;;;;;12.12;64.37;102704.34;5092263;28;20036;-86
2023/02/03 09:41:02;;;;;;;0.20;0.20;;;;;;;12.18;63.68;102701.72;5078789;28;20032;-86
2023/02/03 09:46:14;;;;;;;0.10;0.10;;;;;;;12.20;63.60;102699.06;5120079;27;1231639;-85
2023/02/03 09:48:46;;;;;;;0.10;0.10;;;;;;;12.22;64.07;102700.84;5140846;27;20031;-85
2023/02/03 09:51:21;;;;;;;0.10;0.10;;;;;;;12.26;63.69;102696.41;5127849;27;20394;-89
2023/02/03 09:53:56;;;;;;;0.75;0.75;;;;;;;12.14;64.36;102713.22;5124451;27;20035;-86
2023/02/03 09:56:30;;;;;;;0.10;0.10;;;;;;;12.32;63.78;102720.38;5123565;27;20497;-84
2023/02/03 09:58:56;;;;;;;1.55;1.55;;;;;;;12.35;63.83;102717.72;5127351;27;20031;-85
2023/02/03 10:01:26;;;;;;;0.10;0.10;;;;;;;12.40;63.35;102704.44;5124414;27;20023;-82
2023/02/03 10:06:43;;;;;;;0.10;0.10;;;;;;;12.59;62.68;102722.19;5066166;28;20369;-84
2023/02/03 10:12:33;;;;;;;0.10;0.10;;;;;;;12.59;62.74;102726.63;5045617;28;20727;-84
2023/02/03 10:17:40;;;;;;;0.15;0.15;;;;;;;12.70;62.69;102732.00;5088457;27;1881612;-84
2023/02/03 10:20:20;;;;;;;0.25;0.25;;;;;;;12.87;62.01;102727.56;5119307;28;20551;-84
2023/02/03 10:22:54;;;;;;;0.10;0.10;;;;;;;12.81;61.65;102746.19;5115699;28;20015;-85
2023/02/03 10:25:33;;;;;;;0.15;0.15;;;;;;;12.82;62.29;102742.59;5091719;28;20054;-84
2023/02/03 10:28:03;;;;;;;0.00;0.00;;;;;;;12.83;61.60;102733.75;5110360;28;20044;-84
2023/02/03 10:30:44;;;;;;;0.10;0.10;;;;;;;12.80;61.63;102736.44;5111532;28;20087;-85
2023/02/03 10:33:16;;;;;;;0.28;0.28;;;;;;;12.83;61.57;102752.38;5114068;28;20024;-85
2023/02/03 10:36:08;;;;;;;1.10;1.10;;;;;;;12.91;61.73;102734.66;5113534;28;20086;-85
2023/02/03 10:39:00;;;;;;;0.10;0.10;;;;;;;12.78;62.31;102732.88;5114818;28;20402;-84
2023/02/03 10:41:29;;;;;;;0.20;0.20;;;;;;;12.78;62.18;102747.06;5113717;28;20035;-84
2023/02/03 10:43:56;;;;;;;0.10;0.10;;;;;;;12.80;61.64;102747.06;5110746;28;20051;-85
2023/02/03 10:46:41;;;;;;;0.10;0.10;;;;;;;13.01;61.54;102755.94;5112419;28;20095;-85
2023/02/03 10:49:09;;;;;;;0.20;0.20;;;;;;;12.91;61.57;102763.91;5114194;28;20088;-85
2023/02/03 10:51:54;;;;;;;0.10;0.10;;;;;;;13.05;61.05;102763.06;5115058;28;20036;-84
2023/02/03 10:54:37;;;;;;;0.10;0.10;;;;;;;13.18;61.04;102772.78;5115354;28;20024;-83
2023/02/03 10:57:11;;;;;;;0.17;0.17;;;;;;;13.05;61.08;102777.22;5124922;28;20031;-85
2023/02/03 10:59:41;;;;;;;1.55;1.20;;;;;;;13.15;60.91;102774.59;5128489;28;20023;-85
2023/02/03 11:02:19;;;;;;;0.10;0.10;;;;;;;13.08;61.43;102794.97;5109848;28;20020;-86
2023/02/03 11:04:46;;;;;;;0.40;0.40;;;;;;;13.03;60.98;102772.78;5111687;28;20028;-82
2023/02/03 11:07:24;;;;;;;0.10;0.10;;;;;;;12.98;61.14;102788.75;5114465;28;20028;-84
2023/02/03 11:09:50;;;;;;;0.10;0.10;;;;;;;13.03;61.11;102775.47;5114972;28;20020;-84
2023/02/03 11:12:19;;;;;;;0.10;0.10;;;;;;;13.12;60.99;102783.44;5129458;28;20022;-85
2023/02/03 11:14:49;;;;;;;0.10;0.10;;;;;;;13.21;61.29;102779.91;5131760;28;20012;-85
2023/02/03 11:20:13;;;;;;;0.10;0.10;;;;;;;13.22;60.91;102769.25;5047024;28;20405;-84
2023/02/03 11:22:41;;;;;;;10.23;1.17;;;;;;;13.12;60.67;102775.44;5017582;28;20041;-84
2023/02/03 11:25:19;;;;;;;0.10;0.10;;;;;;;13.20;60.83;102781.66;5016528;28;20397;-84
2023/02/03 11:27:46;;;;;;;0.10;0.10;;;;;;;13.14;60.89;102762.16;5016251;28;20493;-84
2023/02/03 11:32:54;;;;;;;0.10;0.10;;;;;;;13.09;60.68;102779.00;5118917;27;20427;-84
2023/02/03 11:35:24;;;;;;;0.47;0.47;;;;;;;13.05;61.37;102789.66;5105612;28;20094;-83
2023/02/03 11:37:53;;;;;;;0.10;0.10;;;;;;;13.07;61.40;102772.81;5097299;28;20036;-85
2023/02/03 11:45:45;;;;;;;0.10;0.10;;;;;;;13.16;60.78;102793.22;5101352;27;1186067;-85
2023/02/03 11:48:34;;;;;;;1.00;0.90;;;;;;;13.26;60.86;102773.69;5123737;28;20050;-85
2023/02/03 11:59:48;;;;;;;0.15;0.15;;;;;;;13.23;61.07;102768.38;5078014;27;20410;-85
2023/02/03 12:08:26;;;;;;;0.70;0.35;;;;;;;13.23;60.97;102792.34;5064553;27;20437;-85
2023/02/03 12:11:21;;;;;;;0.10;0.10;;;;;;;13.23;61.21;102773.72;5058222;28;20041;-86
2023/02/03 12:14:19;;;;;;;0.10;0.10;;;;;;;13.27;61.13;102783.44;5064028;28;20028;-86
2023/02/03 12:25:29;;;;;;;0.10;0.10;;;;;;;13.23;61.31;102773.72;5072699;28;20799;-83
2023/02/03 12:28:14;;;;;;;0.10;0.10;;;;;;;13.32;60.97;102774.56;5077162;28;20068;-84
2023/02/03 12:30:46;;;;;;;0.10;0.10;;;;;;;13.16;61.57;102777.25;5087216;28;20040;-85
2023/02/03 12:33:31;;;;;;;0.52;0.40;;;;;;;13.17;61.27;102789.69;5077276;28;20047;-84
2023/02/03 12:36:15;;;;;;;0.10;0.10;;;;;;;13.19;61.11;102771.91;5075397;28;20033;-84
2023/02/03 12:38:51;;;;;;;0.15;0.15;;;;;;;13.18;61.41;102791.41;5071224;28;20393;-84
2023/02/03 12:41:25;;;;;;;0.00;0.00;;;;;;;13.27;60.97;102785.22;5063720;28;20035;-84
2023/02/03 12:43:56;;;;;;;0.13;0.13;;;;;;;13.31;60.73;102765.72;5073723;28;20021;-83
2023/02/03 12:46:45;;;;;;;0.10;0.10;;;;;;;13.31;60.64;102783.44;5082145;28;20036;-85
2023/02/03 12:52:27;;;;;;;0.17;0.17;;;;;;;13.39;61.05;102777.25;5013171;27;4008091;-84
2023/02/03 12:55:20;;;;;;;0.10;0.10;;;;;;;13.41;60.92;102802.13;5116498;28;20031;-85
2023/02/03 13:00:42;;;;;;;0.10;0.10;;;;;;;13.36;61.00;102784.34;5086991;27;1234935;-85
2023/02/03 13:03:17;;;;;;;0.10;0.10;;;;;;;13.35;61.11;102793.22;5118739;28;20581;-85
2023/02/03 13:06:03;;;;;;;0.75;0.68;;;;;;;13.26;61.12;102797.66;5121058;28;20106;-85
2023/02/03 13:08:36;;;;;;;1.90;1.55;;;;;;;13.23;61.58;102800.31;5128901;28;20038;-85
2023/02/03 13:13:53;;;;;;;0.45;0.45;;;;;;;13.28;61.47;102810.94;5105010;27;20392;-84
2023/02/03 13:16:28;;;;;;;0.10;0.10;;;;;;;13.26;61.36;102821.59;5085918;28;20028;-83